sensor_id;sensor_type;location;lat;lon;timestamp;P1;durP1;ratioP1;P2;durP2;ratioP2
18433;SDS011;9344;52.294;13.626;2022-09-09T00:01:40;5.20;;;1.98;;
18433;SDS011;9344;52.294;13.626;2022-09-09T00:04:18;3.45;;;2.00;;
18433;SDS011;9344;52.294;13.626;2022-09-09T00:06:55;3.70;;;2.10;;
18433;SDS011;9344;52.294;13.626;2022-09-09T00:09:28;3.05;;;1.63;;
18433;SDS011;9344;52.294;13.626;2022-09-09T00:11:58;2.58;;;1.83;;
18433;SDS011;9344;52.294;13.626;2022-09-09T00:14:32;3.20;;;1.80;;
18433;SDS011;9344;52.294;13.626;2022-09-09T00:17:04;3.05;;;1.88;;
18433;SDS011;9344;52.294;13.626;2022-09-09T00:19:37;2.97;;;1.52;;
18433;SDS011;9344;52.294;13.626;2022-09-09T00:22:14;3.15;;;1.85;;
18433;SDS011;9344;52.294;13.626;2022-09-09T00:24:43;3.92;;;2.28;;
18433;SDS011;9344;52.294;13.626;2022-09-09T00:27:16;4.78;;;1.90;;
18433;SDS011;9344;52.294;13.626;2022-09-09T00:29:51;3.63;;;1.85;;
18433;SDS011;9344;52.294;13.626;2022-09-09T00:32:19;3.25;;;1.90;;
18433;SDS011;9344;52.294;13.626;2022-09-09T00:34:48;3.10;;;1.88;;
18433;SDS011;9344;52.294;13.626;2022-09-09T00:37:17;2.75;;;1.80;;
18433;SDS011;9344;52.294;13.626;2022-09-09T00:39:46;3.25;;;1.83;;
18433;SDS011;9344;52.294;13.626;2022-09-09T00:42:16;2.85;;;1.80;;
18433;SDS011;9344;52.294;13.626;2022-09-09T00:44:50;3.28;;;1.95;;
18433;SDS011;9344;52.294;13.626;2022-09-09T00:47:26;3.58;;;1.83;;
18433;SDS011;9344;52.294;13.626;2022-09-09T00:50:08;3.40;;;1.83;;
18433;SDS011;9344;52.294;13.626;2022-09-09T00:52:51;2.95;;;1.88;;
18433;SDS011;9344;52.294;13.626;2022-09-09T00:55:28;2.67;;;1.85;;
18433;SDS011;9344;52.294;13.626;2022-09-09T00:58:07;5.25;;;1.70;;
18433;SDS011;9344;52.294;13.626;2022-09-09T01:00:35;3.65;;;2.10;;
18433;SDS011;9344;52.294;13.626;2022-09-09T01:03:16;3.88;;;1.40;;
18433;SDS011;9344;52.294;13.626;2022-09-09T01:05:50;3.17;;;1.70;;
18433;SDS011;9344;52.294;13.626;2022-09-09T01:08:28;3.55;;;2.00;;
18433;SDS011;9344;52.294;13.626;2022-09-09T01:11:05;4.97;;;1.90;;
18433;SDS011;9344;52.294;13.626;2022-09-09T01:13:39;3.17;;;1.75;;
18433;SDS011;9344;52.294;13.626;2022-09-09T01:16:09;2.50;;;1.52;;
18433;SDS011;9344;52.294;13.626;2022-09-09T01:18:38;3.30;;;1.83;;
18433;SDS011;9344;52.294;13.626;2022-09-09T01:21:09;3.10;;;1.65;;
18433;SDS011;9344;52.294;13.626;2022-09-09T01:23:49;2.80;;;1.60;;
18433;SDS011;9344;52.294;13.626;2022-09-09T01:26:36;2.85;;;1.73;;
18433;SDS011;9344;52.294;13.626;2022-09-09T01:29:06;3.35;;;2.00;;
18433;SDS011;9344;52.294;13.626;2022-09-09T01:31:36;4.00;;;2.05;;
18433;SDS011;9344;52.294;13.626;2022-09-09T01:34:08;2.83;;;1.58;;
18433;SDS011;9344;52.294;13.626;2022-09-09T01:36:37;2.60;;;1.55;;
18433;SDS011;9344;52.294;13.626;2022-09-09T01:39:08;4.22;;;2.10;;
18433;SDS011;9344;52.294;13.626;2022-09-09T01:41:36;4.88;;;2.20;;
18433;SDS011;9344;52.294;13.626;2022-09-09T01:44:04;4.18;;;2.20;;
18433;SDS011;9344;52.294;13.626;2022-09-09T01:46:31;3.13;;;1.67;;
18433;SDS011;9344;52.294;13.626;2022-09-09T01:48:58;8.55;;;2.00;;
18433;SDS011;9344;52.294;13.626;2022-09-09T01:51:26;3.67;;;1.92;;
18433;SDS011;9344;52.294;13.626;2022-09-09T01:53:53;3.47;;;1.80;;
18433;SDS011;9344;52.294;13.626;2022-09-09T01:56:26;3.58;;;1.70;;
18433;SDS011;9344;52.294;13.626;2022-09-09T01:59:05;5.50;;;2.15;;
18433;SDS011;9344;52.294;13.626;2022-09-09T02:01:46;3.38;;;1.85;;
18433;SDS011;9344;52.294;13.626;2022-09-09T02:04:24;3.20;;;1.90;;
18433;SDS011;9344;52.294;13.626;2022-09-09T02:07:01;3.45;;;1.70;;
18433;SDS011;9344;52.294;13.626;2022-09-09T02:09:29;3.67;;;1.95;;
18433;SDS011;9344;52.294;13.626;2022-09-09T02:11:58;5.80;;;2.10;;
18433;SDS011;9344;52.294;13.626;2022-09-09T02:14:34;3.67;;;2.00;;
18433;SDS011;9344;52.294;13.626;2022-09-09T02:17:06;5.57;;;2.47;;
18433;SDS011;9344;52.294;13.626;2022-09-09T02:19:36;2.75;;;1.80;;
18433;SDS011;9344;52.294;13.626;2022-09-09T02:22:07;3.00;;;1.85;;
18433;SDS011;9344;52.294;13.626;2022-09-09T02:24:35;3.25;;;2.00;;
18433;SDS011;9344;52.294;13.626;2022-09-09T02:27:04;3.15;;;2.08;;
18433;SDS011;9344;52.294;13.626;2022-09-09T02:29:36;4.55;;;1.98;;
18433;SDS011;9344;52.294;13.626;2022-09-09T02:32:07;3.83;;;2.20;;
18433;SDS011;9344;52.294;13.626;2022-09-09T02:34:38;3.95;;;2.17;;
18433;SDS011;9344;52.294;13.626;2022-09-09T02:37:08;4.75;;;2.50;;
18433;SDS011;9344;52.294;13.626;2022-09-09T02:39:37;3.42;;;1.92;;
18433;SDS011;9344;52.294;13.626;2022-09-09T02:42:04;4.03;;;1.90;;
18433;SDS011;9344;52.294;13.626;2022-09-09T02:44:32;5.28;;;2.25;;
18433;SDS011;9344;52.294;13.626;2022-09-09T02:47:06;3.72;;;2.08;;
18433;SDS011;9344;52.294;13.626;2022-09-09T02:49:40;4.90;;;2.20;;
18433;SDS011;9344;52.294;13.626;2022-09-09T02:52:15;5.28;;;2.20;;
18433;SDS011;9344;52.294;13.626;2022-09-09T02:54:47;3.97;;;2.13;;
18433;SDS011;9344;52.294;13.626;2022-09-09T02:57:19;4.10;;;2.20;;
18433;SDS011;9344;52.294;13.626;2022-09-09T02:59:49;3.63;;;2.30;;
18433;SDS011;9344;52.294;13.626;2022-09-09T03:02:18;4.97;;;2.40;;
18433;SDS011;9344;52.294;13.626;2022-09-09T03:04:45;3.50;;;2.22;;
18433;SDS011;9344;52.294;13.626;2022-09-09T03:07:15;4.78;;;2.25;;
18433;SDS011;9344;52.294;13.626;2022-09-09T03:09:42;5.03;;;2.58;;
18433;SDS011;9344;52.294;13.626;2022-09-09T03:12:09;5.00;;;2.55;;
18433;SDS011;9344;52.294;13.626;2022-09-09T03:14:36;4.53;;;2.50;;
18433;SDS011;9344;52.294;13.626;2022-09-09T03:17:03;4.82;;;2.45;;
18433;SDS011;9344;52.294;13.626;2022-09-09T03:19:31;4.32;;;2.38;;
18433;SDS011;9344;52.294;13.626;2022-09-09T03:22:01;4.97;;;2.30;;
18433;SDS011;9344;52.294;13.626;2022-09-09T03:24:29;4.70;;;2.50;;
18433;SDS011;9344;52.294;13.626;2022-09-09T03:26:55;8.98;;;2.47;;
18433;SDS011;9344;52.294;13.626;2022-09-09T03:29:22;3.38;;;2.25;;
18433;SDS011;9344;52.294;13.626;2022-09-09T03:31:49;5.07;;;2.38;;
18433;SDS011;9344;52.294;13.626;2022-09-09T03:34:16;3.83;;;2.13;;
18433;SDS011;9344;52.294;13.626;2022-09-09T03:36:44;4.07;;;2.40;;
18433;SDS011;9344;52.294;13.626;2022-09-09T03:39:11;4.00;;;2.42;;
18433;SDS011;9344;52.294;13.626;2022-09-09T03:41:37;4.55;;;2.83;;
18433;SDS011;9344;52.294;13.626;2022-09-09T03:44:04;4.40;;;2.38;;
18433;SDS011;9344;52.294;13.626;2022-09-09T03:46:30;3.33;;;2.00;;
18433;SDS011;9344;52.294;13.626;2022-09-09T03:48:57;6.97;;;2.33;;
18433;SDS011;9344;52.294;13.626;2022-09-09T03:51:23;3.65;;;2.10;;
18433;SDS011;9344;52.294;13.626;2022-09-09T03:53:51;4.20;;;2.40;;
18433;SDS011;9344;52.294;13.626;2022-09-09T03:56:23;3.85;;;2.53;;
18433;SDS011;9344;52.294;13.626;2022-09-09T03:58:49;4.55;;;2.72;;
18433;SDS011;9344;52.294;13.626;2022-09-09T04:01:16;5.63;;;2.72;;
18433;SDS011;9344;52.294;13.626;2022-09-09T04:03:43;4.75;;;2.53;;
18433;SDS011;9344;52.294;13.626;2022-09-09T04:06:10;3.65;;;2.30;;
18433;SDS011;9344;52.294;13.626;2022-09-09T04:08:38;4.10;;;2.00;;
18433;SDS011;9344;52.294;13.626;2022-09-09T04:11:06;4.22;;;2.60;;
18433;SDS011;9344;52.294;13.626;2022-09-09T04:13:33;4.35;;;2.60;;
18433;SDS011;9344;52.294;13.626;2022-09-09T04:16:02;4.35;;;2.47;;
18433;SDS011;9344;52.294;13.626;2022-09-09T04:18:29;5.13;;;2.67;;
18433;SDS011;9344;52.294;13.626;2022-09-09T04:20:57;4.38;;;2.60;;
18433;SDS011;9344;52.294;13.626;2022-09-09T04:23:24;3.97;;;2.45;;
18433;SDS011;9344;52.294;13.626;2022-09-09T04:25:52;5.80;;;3.17;;
18433;SDS011;9344;52.294;13.626;2022-09-09T04:28:22;7.57;;;3.10;;
18433;SDS011;9344;52.294;13.626;2022-09-09T04:30:49;4.75;;;2.40;;
18433;SDS011;9344;52.294;13.626;2022-09-09T04:33:17;5.85;;;2.60;;
18433;SDS011;9344;52.294;13.626;2022-09-09T04:35:44;4.05;;;2.30;;
18433;SDS011;9344;52.294;13.626;2022-09-09T04:38:13;4.05;;;2.38;;
18433;SDS011;9344;52.294;13.626;2022-09-09T04:40:41;6.15;;;2.40;;
18433;SDS011;9344;52.294;13.626;2022-09-09T04:43:08;5.97;;;2.70;;
18433;SDS011;9344;52.294;13.626;2022-09-09T04:45:36;6.68;;;2.85;;
18433;SDS011;9344;52.294;13.626;2022-09-09T04:48:05;4.55;;;2.55;;
18433;SDS011;9344;52.294;13.626;2022-09-09T04:50:32;5.97;;;2.90;;
18433;SDS011;9344;52.294;13.626;2022-09-09T04:52:59;4.28;;;2.40;;
18433;SDS011;9344;52.294;13.626;2022-09-09T04:55:26;5.30;;;2.58;;
18433;SDS011;9344;52.294;13.626;2022-09-09T04:57:53;5.63;;;2.78;;
18433;SDS011;9344;52.294;13.626;2022-09-09T05:00:20;5.18;;;2.83;;
18433;SDS011;9344;52.294;13.626;2022-09-09T05:02:48;5.35;;;2.90;;
18433;SDS011;9344;52.294;13.626;2022-09-09T05:05:14;5.30;;;2.67;;
18433;SDS011;9344;52.294;13.626;2022-09-09T05:07:41;5.53;;;2.55;;
18433;SDS011;9344;52.294;13.626;2022-09-09T05:10:08;4.60;;;2.17;;
18433;SDS011;9344;52.294;13.626;2022-09-09T05:12:35;4.47;;;2.47;;
18433;SDS011;9344;52.294;13.626;2022-09-09T05:15:02;4.25;;;2.60;;
18433;SDS011;9344;52.294;13.626;2022-09-09T05:17:29;5.15;;;2.22;;
18433;SDS011;9344;52.294;13.626;2022-09-09T05:19:57;4.70;;;2.70;;
18433;SDS011;9344;52.294;13.626;2022-09-09T05:22:23;5.70;;;2.90;;
18433;SDS011;9344;52.294;13.626;2022-09-09T05:24:50;7.18;;;3.45;;
18433;SDS011;9344;52.294;13.626;2022-09-09T05:27:16;4.75;;;2.70;;
18433;SDS011;9344;52.294;13.626;2022-09-09T05:29:44;5.53;;;2.90;;
18433;SDS011;9344;52.294;13.626;2022-09-09T05:32:10;4.10;;;2.63;;
18433;SDS011;9344;52.294;13.626;2022-09-09T05:34:38;5.20;;;2.55;;
18433;SDS011;9344;52.294;13.626;2022-09-09T05:37:06;5.75;;;2.30;;
18433;SDS011;9344;52.294;13.626;2022-09-09T05:39:33;4.82;;;2.83;;
18433;SDS011;9344;52.294;13.626;2022-09-09T05:42:01;3.92;;;2.28;;
18433;SDS011;9344;52.294;13.626;2022-09-09T05:44:27;3.65;;;2.42;;
18433;SDS011;9344;52.294;13.626;2022-09-09T05:46:54;4.70;;;2.55;;
18433;SDS011;9344;52.294;13.626;2022-09-09T05:49:20;4.10;;;2.58;;
18433;SDS011;9344;52.294;13.626;2022-09-09T05:51:47;3.63;;;2.45;;
18433;SDS011;9344;52.294;13.626;2022-09-09T05:54:16;6.13;;;1.88;;
18433;SDS011;9344;52.294;13.626;2022-09-09T05:56:43;3.92;;;2.38;;
18433;SDS011;9344;52.294;13.626;2022-09-09T05:59:10;2.92;;;1.73;;
18433;SDS011;9344;52.294;13.626;2022-09-09T06:01:37;5.05;;;2.05;;
18433;SDS011;9344;52.294;13.626;2022-09-09T06:04:05;3.38;;;2.20;;
18433;SDS011;9344;52.294;13.626;2022-09-09T06:06:32;6.93;;;2.47;;
18433;SDS011;9344;52.294;13.626;2022-09-09T06:09:01;3.10;;;1.95;;
18433;SDS011;9344;52.294;13.626;2022-09-09T06:11:32;3.92;;;1.77;;
18433;SDS011;9344;52.294;13.626;2022-09-09T06:14:02;4.93;;;2.50;;
18433;SDS011;9344;52.294;13.626;2022-09-09T06:16:29;2.70;;;2.00;;
18433;SDS011;9344;52.294;13.626;2022-09-09T06:18:57;3.75;;;1.98;;
18433;SDS011;9344;52.294;13.626;2022-09-09T06:21:25;5.90;;;2.42;;
18433;SDS011;9344;52.294;13.626;2022-09-09T06:23:52;5.43;;;2.38;;
18433;SDS011;9344;52.294;13.626;2022-09-09T06:26:20;3.70;;;1.45;;
18433;SDS011;9344;52.294;13.626;2022-09-09T06:28:50;3.92;;;2.22;;
18433;SDS011;9344;52.294;13.626;2022-09-09T06:31:18;5.25;;;2.05;;
18433;SDS011;9344;52.294;13.626;2022-09-09T06:33:46;4.82;;;2.40;;
18433;SDS011;9344;52.294;13.626;2022-09-09T06:36:15;3.60;;;2.13;;
18433;SDS011;9344;52.294;13.626;2022-09-09T06:38:43;5.88;;;2.17;;
18433;SDS011;9344;52.294;13.626;2022-09-09T06:41:11;6.78;;;2.35;;
18433;SDS011;9344;52.294;13.626;2022-09-09T06:43:39;7.22;;;2.40;;
18433;SDS011;9344;52.294;13.626;2022-09-09T06:46:08;5.78;;;2.15;;
18433;SDS011;9344;52.294;13.626;2022-09-09T06:48:36;4.60;;;2.25;;
18433;SDS011;9344;52.294;13.626;2022-09-09T06:51:06;4.55;;;2.20;;
18433;SDS011;9344;52.294;13.626;2022-09-09T06:53:34;3.03;;;2.17;;
18433;SDS011;9344;52.294;13.626;2022-09-09T06:56:03;4.88;;;2.35;;
18433;SDS011;9344;52.294;13.626;2022-09-09T06:58:45;5.40;;;2.50;;
18433;SDS011;9344;52.294;13.626;2022-09-09T07:01:13;4.50;;;2.15;;
18433;SDS011;9344;52.294;13.626;2022-09-09T07:03:44;4.45;;;2.40;;
18433;SDS011;9344;52.294;13.626;2022-09-09T07:06:12;5.22;;;2.33;;
18433;SDS011;9344;52.294;13.626;2022-09-09T07:08:41;4.25;;;2.15;;
18433;SDS011;9344;52.294;13.626;2022-09-09T07:11:08;6.43;;;2.50;;
18433;SDS011;9344;52.294;13.626;2022-09-09T07:13:36;5.03;;;2.28;;
18433;SDS011;9344;52.294;13.626;2022-09-09T07:16:03;8.07;;;2.63;;
18433;SDS011;9344;52.294;13.626;2022-09-09T07:18:32;4.78;;;2.20;;
18433;SDS011;9344;52.294;13.626;2022-09-09T07:21:00;4.50;;;2.10;;
18433;SDS011;9344;52.294;13.626;2022-09-09T07:23:27;3.85;;;2.35;;
18433;SDS011;9344;52.294;13.626;2022-09-09T07:25:54;4.15;;;2.00;;
18433;SDS011;9344;52.294;13.626;2022-09-09T07:28:20;3.30;;;1.70;;
18433;SDS011;9344;52.294;13.626;2022-09-09T07:30:52;2.20;;;1.60;;
18433;SDS011;9344;52.294;13.626;2022-09-09T07:33:19;3.75;;;1.65;;
18433;SDS011;9344;52.294;13.626;2022-09-09T07:35:47;4.85;;;1.38;;
18433;SDS011;9344;52.294;13.626;2022-09-09T07:38:14;5.95;;;1.45;;
18433;SDS011;9344;52.294;13.626;2022-09-09T07:40:40;4.35;;;1.52;;
18433;SDS011;9344;52.294;13.626;2022-09-09T07:43:07;4.35;;;1.80;;
18433;SDS011;9344;52.294;13.626;2022-09-09T07:45:33;4.90;;;1.70;;
18433;SDS011;9344;52.294;13.626;2022-09-09T07:48:00;3.22;;;1.88;;
18433;SDS011;9344;52.294;13.626;2022-09-09T07:50:27;2.95;;;2.05;;
18433;SDS011;9344;52.294;13.626;2022-09-09T07:52:56;3.28;;;1.80;;
18433;SDS011;9344;52.294;13.626;2022-09-09T07:55:22;2.47;;;1.83;;
18433;SDS011;9344;52.294;13.626;2022-09-09T07:57:51;3.90;;;1.80;;
18433;SDS011;9344;52.294;13.626;2022-09-09T08:00:18;3.78;;;1.60;;
18433;SDS011;9344;52.294;13.626;2022-09-09T08:02:47;4.28;;;1.73;;
18433;SDS011;9344;52.294;13.626;2022-09-09T08:05:13;3.65;;;2.05;;
18433;SDS011;9344;52.294;13.626;2022-09-09T08:07:41;4.80;;;1.83;;
18433;SDS011;9344;52.294;13.626;2022-09-09T08:10:10;4.65;;;1.70;;
18433;SDS011;9344;52.294;13.626;2022-09-09T08:12:39;5.88;;;1.70;;
18433;SDS011;9344;52.294;13.626;2022-09-09T08:15:06;6.95;;;1.75;;
18433;SDS011;9344;52.294;13.626;2022-09-09T08:17:33;3.42;;;1.63;;
18433;SDS011;9344;52.294;13.626;2022-09-09T08:19:59;2.20;;;1.50;;
18433;SDS011;9344;52.294;13.626;2022-09-09T08:22:29;3.75;;;1.40;;
18433;SDS011;9344;52.294;13.626;2022-09-09T08:24:56;4.95;;;1.40;;
18433;SDS011;9344;52.294;13.626;2022-09-09T08:27:24;2.80;;;1.50;;
18433;SDS011;9344;52.294;13.626;2022-09-09T08:29:50;3.45;;;1.50;;
18433;SDS011;9344;52.294;13.626;2022-09-09T08:32:18;2.22;;;1.70;;
18433;SDS011;9344;52.294;13.626;2022-09-09T08:34:44;2.28;;;1.67;;
18433;SDS011;9344;52.294;13.626;2022-09-09T08:37:11;2.67;;;1.58;;
18433;SDS011;9344;52.294;13.626;2022-09-09T08:39:38;5.53;;;1.65;;
18433;SDS011;9344;52.294;13.626;2022-09-09T08:42:08;3.58;;;1.30;;
18433;SDS011;9344;52.294;13.626;2022-09-09T08:44:52;4.20;;;1.67;;
18433;SDS011;9344;52.294;13.626;2022-09-09T08:47:28;4.68;;;1.40;;
18433;SDS011;9344;52.294;13.626;2022-09-09T08:50:06;5.72;;;1.30;;
18433;SDS011;9344;52.294;13.626;2022-09-09T08:52:43;1.95;;;1.35;;
18433;SDS011;9344;52.294;13.626;2022-09-09T08:55:21;1.77;;;1.20;;
18433;SDS011;9344;52.294;13.626;2022-09-09T08:57:55;2.88;;;1.30;;
18433;SDS011;9344;52.294;13.626;2022-09-09T09:00:28;2.83;;;1.17;;
18433;SDS011;9344;52.294;13.626;2022-09-09T09:03:06;2.20;;;1.40;;
18433;SDS011;9344;52.294;13.626;2022-09-09T09:05:43;3.95;;;1.30;;
18433;SDS011;9344;52.294;13.626;2022-09-09T09:08:16;4.45;;;1.30;;
18433;SDS011;9344;52.294;13.626;2022-09-09T09:10:47;4.13;;;1.30;;
18433;SDS011;9344;52.294;13.626;2022-09-09T09:13:17;2.95;;;1.20;;
18433;SDS011;9344;52.294;13.626;2022-09-09T09:15:48;3.78;;;1.17;;
18433;SDS011;9344;52.294;13.626;2022-09-09T09:18:21;1.48;;;0.98;;
18433;SDS011;9344;52.294;13.626;2022-09-09T09:20:50;2.33;;;1.10;;
18433;SDS011;9344;52.294;13.626;2022-09-09T09:23:22;1.65;;;1.00;;
18433;SDS011;9344;52.294;13.626;2022-09-09T09:25:50;0.85;;;0.80;;
18433;SDS011;9344;52.294;13.626;2022-09-09T09:28:23;1.50;;;0.85;;
18433;SDS011;9344;52.294;13.626;2022-09-09T09:30:53;1.30;;;1.02;;
18433;SDS011;9344;52.294;13.626;2022-09-09T09:33:23;2.05;;;1.15;;
18433;SDS011;9344;52.294;13.626;2022-09-09T09:35:54;3.28;;;0.90;;
18433;SDS011;9344;52.294;13.626;2022-09-09T09:38:21;2.10;;;0.90;;
18433;SDS011;9344;52.294;13.626;2022-09-09T09:40:50;1.63;;;0.82;;
18433;SDS011;9344;52.294;13.626;2022-09-09T09:43:21;1.00;;;0.82;;
18433;SDS011;9344;52.294;13.626;2022-09-09T09:45:54;1.40;;;0.80;;
18433;SDS011;9344;52.294;13.626;2022-09-09T09:48:22;1.55;;;0.80;;
18433;SDS011;9344;52.294;13.626;2022-09-09T09:50:50;1.67;;;1.00;;
18433;SDS011;9344;52.294;13.626;2022-09-09T09:53:20;1.65;;;0.90;;
18433;SDS011;9344;52.294;13.626;2022-09-09T09:55:50;2.63;;;0.80;;
18433;SDS011;9344;52.294;13.626;2022-09-09T09:58:23;0.82;;;0.70;;
18433;SDS011;9344;52.294;13.626;2022-09-09T10:00:54;2.25;;;0.98;;
18433;SDS011;9344;52.294;13.626;2022-09-09T10:03:22;1.52;;;1.00;;
18433;SDS011;9344;52.294;13.626;2022-09-09T10:05:50;1.33;;;0.73;;
18433;SDS011;9344;52.294;13.626;2022-09-09T10:08:18;2.67;;;0.95;;
18433;SDS011;9344;52.294;13.626;2022-09-09T10:10:57;1.17;;;1.00;;
18433;SDS011;9344;52.294;13.626;2022-09-09T10:13:41;3.00;;;1.05;;
18433;SDS011;9344;52.294;13.626;2022-09-09T10:16:20;1.00;;;0.80;;
18433;SDS011;9344;52.294;13.626;2022-09-09T10:18:58;3.78;;;0.90;;
18433;SDS011;9344;52.294;13.626;2022-09-09T10:21:43;1.35;;;0.70;;
18433;SDS011;9344;52.294;13.626;2022-09-09T10:24:38;2.55;;;0.75;;
18433;SDS011;9344;52.294;13.626;2022-09-09T10:27:25;6.30;;;0.88;;
18433;SDS011;9344;52.294;13.626;2022-09-09T10:29:59;5.80;;;0.77;;
18433;SDS011;9344;52.294;13.626;2022-09-09T10:32:39;0.65;;;0.60;;
18433;SDS011;9344;52.294;13.626;2022-09-09T10:35:18;2.30;;;0.75;;
18433;SDS011;9344;52.294;13.626;2022-09-09T10:37:54;2.67;;;0.90;;
18433;SDS011;9344;52.294;13.626;2022-09-09T10:40:47;1.58;;;0.70;;
18433;SDS011;9344;52.294;13.626;2022-09-09T10:43:32;1.85;;;0.90;;
18433;SDS011;9344;52.294;13.626;2022-09-09T10:46:13;4.47;;;0.75;;
18433;SDS011;9344;52.294;13.626;2022-09-09T10:48:53;2.38;;;0.85;;
18433;SDS011;9344;52.294;13.626;2022-09-09T10:51:30;2.83;;;1.00;;
18433;SDS011;9344;52.294;13.626;2022-09-09T10:54:09;1.27;;;0.82;;
18433;SDS011;9344;52.294;13.626;2022-09-09T10:56:52;4.10;;;1.00;;
18433;SDS011;9344;52.294;13.626;2022-09-09T10:59:24;1.30;;;0.80;;
18433;SDS011;9344;52.294;13.626;2022-09-09T11:01:55;1.73;;;0.68;;
18433;SDS011;9344;52.294;13.626;2022-09-09T11:04:28;3.58;;;0.70;;
18433;SDS011;9344;52.294;13.626;2022-09-09T11:07:00;1.88;;;0.80;;
18433;SDS011;9344;52.294;13.626;2022-09-09T11:09:36;1.55;;;0.63;;
18433;SDS011;9344;52.294;13.626;2022-09-09T11:12:07;1.92;;;0.70;;
18433;SDS011;9344;52.294;13.626;2022-09-09T11:14:42;2.33;;;0.60;;
18433;SDS011;9344;52.294;13.626;2022-09-09T11:17:12;5.05;;;0.80;;
18433;SDS011;9344;52.294;13.626;2022-09-09T11:19:43;3.67;;;0.60;;
18433;SDS011;9344;52.294;13.626;2022-09-09T11:22:15;1.00;;;0.70;;
18433;SDS011;9344;52.294;13.626;2022-09-09T11:24:47;1.20;;;0.60;;
18433;SDS011;9344;52.294;13.626;2022-09-09T11:27:18;1.33;;;0.73;;
18433;SDS011;9344;52.294;13.626;2022-09-09T11:30:13;1.70;;;0.60;;
18433;SDS011;9344;52.294;13.626;2022-09-09T11:32:47;2.05;;;0.70;;
18433;SDS011;9344;52.294;13.626;2022-09-09T11:35:40;1.67;;;1.00;;
18433;SDS011;9344;52.294;13.626;2022-09-09T11:38:18;3.22;;;0.70;;
18433;SDS011;9344;52.294;13.626;2022-09-09T11:40:47;1.85;;;0.82;;
18433;SDS011;9344;52.294;13.626;2022-09-09T11:43:23;1.98;;;0.75;;
18433;SDS011;9344;52.294;13.626;2022-09-09T11:45:53;1.42;;;0.70;;
18433;SDS011;9344;52.294;13.626;2022-09-09T11:48:25;1.33;;;0.70;;
18433;SDS011;9344;52.294;13.626;2022-09-09T11:50:59;0.77;;;0.63;;
18433;SDS011;9344;52.294;13.626;2022-09-09T11:53:30;2.65;;;1.08;;
18433;SDS011;9344;52.294;13.626;2022-09-09T11:58:53;0.80;;;0.60;;
18433;SDS011;9344;52.294;13.626;2022-09-09T12:01:27;2.10;;;1.15;;
18433;SDS011;9344;52.294;13.626;2022-09-09T12:04:01;4.30;;;0.80;;
18433;SDS011;9344;52.294;13.626;2022-09-09T12:06:45;2.88;;;0.70;;
18433;SDS011;9344;52.294;13.626;2022-09-09T12:09:17;0.95;;;0.70;;
18433;SDS011;9344;52.294;13.626;2022-09-09T12:11:48;5.45;;;1.02;;
18433;SDS011;9344;52.294;13.626;2022-09-09T12:14:22;2.35;;;0.80;;
18433;SDS011;9344;52.294;13.626;2022-09-09T12:17:07;1.25;;;0.70;;
18433;SDS011;9344;52.294;13.626;2022-09-09T12:19:36;1.38;;;0.80;;
18433;SDS011;9344;52.294;13.626;2022-09-09T12:22:04;3.13;;;0.80;;
18433;SDS011;9344;52.294;13.626;2022-09-09T12:24:40;1.75;;;1.00;;
18433;SDS011;9344;52.294;13.626;2022-09-09T12:27:14;5.65;;;0.95;;
18433;SDS011;9344;52.294;13.626;2022-09-09T12:29:48;1.70;;;0.70;;
18433;SDS011;9344;52.294;13.626;2022-09-09T12:32:22;1.05;;;0.70;;
18433;SDS011;9344;52.294;13.626;2022-09-09T12:34:52;0.70;;;0.60;;
18433;SDS011;9344;52.294;13.626;2022-09-09T12:37:26;0.93;;;0.60;;
18433;SDS011;9344;52.294;13.626;2022-09-09T12:39:58;1.05;;;0.70;;
18433;SDS011;9344;52.294;13.626;2022-09-09T12:42:27;1.05;;;0.70;;
18433;SDS011;9344;52.294;13.626;2022-09-09T12:44:54;7.38;;;0.70;;
18433;SDS011;9344;52.294;13.626;2022-09-09T12:47:23;0.93;;;0.70;;
18433;SDS011;9344;52.294;13.626;2022-09-09T12:50:10;2.53;;;0.60;;
18433;SDS011;9344;52.294;13.626;2022-09-09T12:52:43;2.42;;;0.60;;
18433;SDS011;9344;52.294;13.626;2022-09-09T12:55:14;1.13;;;0.57;;
18433;SDS011;9344;52.294;13.626;2022-09-09T12:57:43;1.27;;;0.70;;
18433;SDS011;9344;52.294;13.626;2022-09-09T13:00:12;2.00;;;0.70;;
18433;SDS011;9344;52.294;13.626;2022-09-09T13:02:48;0.60;;;0.60;;
18433;SDS011;9344;52.294;13.626;2022-09-09T13:05:18;4.03;;;0.75;;
18433;SDS011;9344;52.294;13.626;2022-09-09T13:07:48;1.10;;;0.70;;
18433;SDS011;9344;52.294;13.626;2022-09-09T13:10:15;1.08;;;0.80;;
18433;SDS011;9344;52.294;13.626;2022-09-09T13:12:49;2.58;;;0.63;;
18433;SDS011;9344;52.294;13.626;2022-09-09T13:15:19;0.73;;;0.60;;
18433;SDS011;9344;52.294;13.626;2022-09-09T13:17:50;0.70;;;0.55;;
18433;SDS011;9344;52.294;13.626;2022-09-09T13:20:19;6.32;;;0.88;;
18433;SDS011;9344;52.294;13.626;2022-09-09T13:22:48;0.75;;;0.60;;
18433;SDS011;9344;52.294;13.626;2022-09-09T13:25:18;2.78;;;0.70;;
18433;SDS011;9344;52.294;13.626;2022-09-09T13:27:55;1.77;;;0.60;;
18433;SDS011;9344;52.294;13.626;2022-09-09T13:30:24;1.45;;;0.70;;
18433;SDS011;9344;52.294;13.626;2022-09-09T13:32:59;1.02;;;0.80;;
18433;SDS011;9344;52.294;13.626;2022-09-09T13:35:30;2.28;;;0.70;;
18433;SDS011;9344;52.294;13.626;2022-09-09T13:38:00;1.27;;;0.73;;
18433;SDS011;9344;52.294;13.626;2022-09-09T13:40:34;1.45;;;0.70;;
18433;SDS011;9344;52.294;13.626;2022-09-09T13:43:01;0.95;;;0.68;;
18433;SDS011;9344;52.294;13.626;2022-09-09T13:45:28;2.28;;;0.70;;
18433;SDS011;9344;52.294;13.626;2022-09-09T13:47:55;1.98;;;0.90;;
18433;SDS011;9344;52.294;13.626;2022-09-09T13:50:22;2.88;;;0.80;;
18433;SDS011;9344;52.294;13.626;2022-09-09T13:52:51;0.60;;;0.60;;
18433;SDS011;9344;52.294;13.626;2022-09-09T13:55:20;1.25;;;0.60;;
18433;SDS011;9344;52.294;13.626;2022-09-09T13:57:52;2.35;;;0.60;;
18433;SDS011;9344;52.294;13.626;2022-09-09T14:00:20;2.10;;;0.70;;
18433;SDS011;9344;52.294;13.626;2022-09-09T14:02:49;1.70;;;0.50;;
18433;SDS011;9344;52.294;13.626;2022-09-09T14:05:16;2.60;;;0.50;;
18433;SDS011;9344;52.294;13.626;2022-09-09T14:07:44;0.82;;;0.50;;
18433;SDS011;9344;52.294;13.626;2022-09-09T14:10:10;1.90;;;0.57;;
18433;SDS011;9344;52.294;13.626;2022-09-09T14:12:39;1.48;;;0.80;;
18433;SDS011;9344;52.294;13.626;2022-09-09T14:15:06;1.77;;;0.70;;
18433;SDS011;9344;52.294;13.626;2022-09-09T14:17:35;2.40;;;0.90;;
18433;SDS011;9344;52.294;13.626;2022-09-09T14:20:02;1.98;;;0.98;;
18433;SDS011;9344;52.294;13.626;2022-09-09T14:22:30;1.45;;;0.80;;
18433;SDS011;9344;52.294;13.626;2022-09-09T14:24:57;1.67;;;0.80;;
18433;SDS011;9344;52.294;13.626;2022-09-09T14:27:23;3.03;;;0.70;;
18433;SDS011;9344;52.294;13.626;2022-09-09T14:29:52;2.42;;;0.50;;
18433;SDS011;9344;52.294;13.626;2022-09-09T14:32:19;1.08;;;0.40;;
18433;SDS011;9344;52.294;13.626;2022-09-09T14:34:46;1.58;;;0.57;;
18433;SDS011;9344;52.294;13.626;2022-09-09T14:37:14;1.05;;;0.50;;
18433;SDS011;9344;52.294;13.626;2022-09-09T14:39:41;1.25;;;0.60;;
18433;SDS011;9344;52.294;13.626;2022-09-09T14:42:08;3.35;;;0.60;;
18433;SDS011;9344;52.294;13.626;2022-09-09T14:44:36;1.17;;;0.60;;
18433;SDS011;9344;52.294;13.626;2022-09-09T14:47:04;2.22;;;0.57;;
18433;SDS011;9344;52.294;13.626;2022-09-09T14:49:32;2.17;;;0.55;;
18433;SDS011;9344;52.294;13.626;2022-09-09T14:51:59;1.38;;;0.50;;
18433;SDS011;9344;52.294;13.626;2022-09-09T14:54:26;1.55;;;0.43;;
18433;SDS011;9344;52.294;13.626;2022-09-09T14:56:53;1.33;;;0.60;;
18433;SDS011;9344;52.294;13.626;2022-09-09T14:59:20;1.85;;;0.73;;
18433;SDS011;9344;52.294;13.626;2022-09-09T15:01:47;2.47;;;0.60;;
18433;SDS011;9344;52.294;13.626;2022-09-09T15:04:15;0.70;;;0.70;;
18433;SDS011;9344;52.294;13.626;2022-09-09T15:06:43;2.90;;;0.70;;
18433;SDS011;9344;52.294;13.626;2022-09-09T15:09:13;2.88;;;0.90;;
18433;SDS011;9344;52.294;13.626;2022-09-09T15:11:39;3.40;;;0.85;;